sensor_id;sensor_type;location;lat;lon;timestamp;temperature;humidity
17891;DHT22;9071;48.220;14.480;2023-04-25T00:02:16;7.10;99.90
17891;DHT22;9071;48.220;14.480;2023-04-25T00:07:20;7.00;99.90
17891;DHT22;9071;48.220;14.480;2023-04-25T00:12:21;6.90;99.90
17891;DHT22;9071;48.220;14.480;2023-04-25T00:17:24;6.80;99.90
17891;DHT22;9071;48.220;14.480;2023-04-25T00:22:28;7.00;99.90
17891;DHT22;9071;48.220;14.480;2023-04-25T00:27:31;7.10;99.90
17891;DHT22;9071;48.220;14.480;2023-04-25T00:32:33;7.20;99.90
17891;DHT22;9071;48.220;14.480;2023-04-25T00:37:36;7.20;99.90
17891;DHT22;9071;48.220;14.480;2023-04-25T00:42:39;7.30;99.90
17891;DHT22;9071;48.220;14.480;2023-04-25T00:47:42;7.30;99.90
17891;DHT22;9071;48.220;14.480;2023-04-25T00:52:46;7.30;99.90
17891;DHT22;9071;48.220;14.480;2023-04-25T00:57:48;7.30;99.90
17891;DHT22;9071;48.220;14.480;2023-04-25T01:02:50;7.30;99.90
17891;DHT22;9071;48.220;14.480;2023-04-25T01:07:54;7.20;99.90
17891;DHT22;9071;48.220;14.480;2023-04-25T01:12:56;7.20;99.90
17891;DHT22;9071;48.220;14.480;2023-04-25T01:17:58;7.20;99.90
17891;DHT22;9071;48.220;14.480;2023-04-25T01:23:03;7.10;99.90
17891;DHT22;9071;48.220;14.480;2023-04-25T01:28:05;7.00;99.90
17891;DHT22;9071;48.220;14.480;2023-04-25T01:33:08;6.80;99.90
17891;DHT22;9071;48.220;14.480;2023-04-25T01:38:12;6.60;99.90
17891;DHT22;9071;48.220;14.480;2023-04-25T01:43:14;6.30;99.90
17891;DHT22;9071;48.220;14.480;2023-04-25T01:48:17;6.20;99.90
17891;DHT22;9071;48.220;14.480;2023-04-25T01:53:20;6.10;99.90
17891;DHT22;9071;48.220;14.480;2023-04-25T01:58:23;6.10;99.90
17891;DHT22;9071;48.220;14.480;2023-04-25T02:03:25;5.90;99.90
17891;DHT22;9071;48.220;14.480;2023-04-25T02:08:28;5.70;99.90
17891;DHT22;9071;48.220;14.480;2023-04-25T02:13:31;5.50;99.90
17891;DHT22;9071;48.220;14.480;2023-04-25T02:18:34;5.50;99.90
17891;DHT22;9071;48.220;14.480;2023-04-25T02:23:39;5.60;99.90
17891;DHT22;9071;48.220;14.480;2023-04-25T02:28:41;5.70;99.90
17891;DHT22;9071;48.220;14.480;2023-04-25T02:33:43;5.90;99.90
17891;DHT22;9071;48.220;14.480;2023-04-25T02:38:46;6.10;99.90
17891;DHT22;9071;48.220;14.480;2023-04-25T02:43:48;6.10;99.90
17891;DHT22;9071;48.220;14.480;2023-04-25T02:48:50;6.10;99.90
17891;DHT22;9071;48.220;14.480;2023-04-25T02:53:54;6.00;99.90
17891;DHT22;9071;48.220;14.480;2023-04-25T02:58:56;5.90;99.90
17891;DHT22;9071;48.220;14.480;2023-04-25T03:03:58;5.60;99.90
17891;DHT22;9071;48.220;14.480;2023-04-25T03:09:01;5.40;99.90
17891;DHT22;9071;48.220;14.480;2023-04-25T03:14:04;5.20;99.90
17891;DHT22;9071;48.220;14.480;2023-04-25T03:19:06;5.10;99.90
17891;DHT22;9071;48.220;14.480;2023-04-25T03:24:10;4.90;99.90
17891;DHT22;9071;48.220;14.480;2023-04-25T03:29:12;4.80;99.90
17891;DHT22;9071;48.220;14.480;2023-04-25T03:34:14;4.70;99.90
17891;DHT22;9071;48.220;14.480;2023-04-25T03:39:18;4.50;99.90
17891;DHT22;9071;48.220;14.480;2023-04-25T03:44:20;4.70;99.90
17891;DHT22;9071;48.220;14.480;2023-04-25T03:49:22;4.60;99.90
17891;DHT22;9071;48.220;14.480;2023-04-25T03:54:25;4.50;99.90
17891;DHT22;9071;48.220;14.480;2023-04-25T03:59:27;4.50;99.90
17891;DHT22;9071;48.220;14.480;2023-04-25T04:04:30;4.50;99.90
17891;DHT22;9071;48.220;14.480;2023-04-25T04:09:33;4.40;99.90
17891;DHT22;9071;48.220;14.480;2023-04-25T04:14:35;4.40;99.90
17891;DHT22;9071;48.220;14.480;2023-04-25T04:19:37;4.40;99.90
17891;DHT22;9071;48.220;14.480;2023-04-25T04:24:41;4.60;99.90
17891;DHT22;9071;48.220;14.480;2023-04-25T04:29:44;4.90;99.90
17891;DHT22;9071;48.220;14.480;2023-04-25T04:34:46;5.10;99.90
17891;DHT22;9071;48.220;14.480;2023-04-25T04:39:50;5.20;99.90
17891;DHT22;9071;48.220;14.480;2023-04-25T04:44:53;5.40;99.90
17891;DHT22;9071;48.220;14.480;2023-04-25T04:49:55;5.60;99.90
17891;DHT22;9071;48.220;14.480;2023-04-25T04:54:59;6.00;99.90
17891;DHT22;9071;48.220;14.480;2023-04-25T05:00:01;6.40;99.90
17891;DHT22;9071;48.220;14.480;2023-04-25T05:05:06;6.70;99.90
17891;DHT22;9071;48.220;14.480;2023-04-25T05:10:10;7.20;99.90
17891;DHT22;9071;48.220;14.480;2023-04-25T05:15:12;7.50;99.90
17891;DHT22;9071;48.220;14.480;2023-04-25T05:20:15;7.90;99.90
17891;DHT22;9071;48.220;14.480;2023-04-25T05:25:20;8.10;99.90
17891;DHT22;9071;48.220;14.480;2023-04-25T05:30:22;8.00;99.90
17891;DHT22;9071;48.220;14.480;2023-04-25T05:35:24;8.70;99.90
17891;DHT22;9071;48.220;14.480;2023-04-25T05:40:28;11.90;99.90
17891;DHT22;9071;48.220;14.480;2023-04-25T05:45:30;14.70;99.90
17891;DHT22;9071;48.220;14.480;2023-04-25T05:50:32;17.00;99.90
17891;DHT22;9071;48.220;14.480;2023-04-25T05:55:36;18.40;99.90
17891;DHT22;9071;48.220;14.480;2023-04-25T06:00:38;17.30;99.90
17891;DHT22;9071;48.220;14.480;2023-04-25T06:05:42;14.70;99.90
17891;DHT22;9071;48.220;14.480;2023-04-25T06:10:45;13.90;99.90
17891;DHT22;9071;48.220;14.480;2023-04-25T06:15:47;14.60;99.90
17891;DHT22;9071;48.220;14.480;2023-04-25T06:20:49;16.20;99.90
17891;DHT22;9071;48.220;14.480;2023-04-25T06:25:53;18.50;99.90
17891;DHT22;9071;48.220;14.480;2023-04-25T06:30:55;19.20;99.90
17891;DHT22;9071;48.220;14.480;2023-04-25T06:35:57;20.10;99.90
17891;DHT22;9071;48.220;14.480;2023-04-25T06:41:01;19.90;99.90
17891;DHT22;9071;48.220;14.480;2023-04-25T06:46:03;18.40;99.90
17891;DHT22;9071;48.220;14.480;2023-04-25T06:51:05;19.80;99.90
17891;DHT22;9071;48.220;14.480;2023-04-25T06:56:08;21.70;99.90
17891;DHT22;9071;48.220;14.480;2023-04-25T07:01:10;23.00;99.90
17891;DHT22;9071;48.220;14.480;2023-04-25T07:06:12;23.60;99.90
17891;DHT22;9071;48.220;14.480;2023-04-25T07:11:19;23.40;99.90
17891;DHT22;9071;48.220;14.480;2023-04-25T07:16:21;24.10;99.90
17891;DHT22;9071;48.220;14.480;2023-04-25T07:21:23;22.80;99.90
17891;DHT22;9071;48.220;14.480;2023-04-25T07:26:26;21.90;99.90
17891;DHT22;9071;48.220;14.480;2023-04-25T07:31:28;22.30;99.90
17891;DHT22;9071;48.220;14.480;2023-04-25T07:36:30;22.80;99.90
17891;DHT22;9071;48.220;14.480;2023-04-25T07:41:34;22.20;99.90
17891;DHT22;9071;48.220;14.480;2023-04-25T07:46:36;21.20;99.90
17891;DHT22;9071;48.220;14.480;2023-04-25T07:51:38;18.60;99.90
17891;DHT22;9071;48.220;14.480;2023-04-25T07:56:43;16.40;99.90
17891;DHT22;9071;48.220;14.480;2023-04-25T08:01:45;16.00;99.90
17891;DHT22;9071;48.220;14.480;2023-04-25T08:06:47;15.50;99.90
17891;DHT22;9071;48.220;14.480;2023-04-25T08:11:50;15.30;99.90
17891;DHT22;9071;48.220;14.480;2023-04-25T08:16:52;15.40;99.90
17891;DHT22;9071;48.220;14.480;2023-04-25T08:21:54;15.30;99.90
17891;DHT22;9071;48.220;14.480;2023-04-25T08:26:58;15.00;99.90
17891;DHT22;9071;48.220;14.480;2023-04-25T08:32:01;15.60;99.90
17891;DHT22;9071;48.220;14.480;2023-04-25T08:37:03;15.60;99.90
17891;DHT22;9071;48.220;14.480;2023-04-25T08:42:07;15.70;99.90
17891;DHT22;9071;48.220;14.480;2023-04-25T08:47:09;15.60;99.90
17891;DHT22;9071;48.220;14.480;2023-04-25T08:52:13;15.60;99.90
17891;DHT22;9071;48.220;14.480;2023-04-25T08:57:17;15.60;99.90
17891;DHT22;9071;48.220;14.480;2023-04-25T09:02:20;15.60;99.90
17891;DHT22;9071;48.220;14.480;2023-04-25T09:07:22;15.70;99.90
17891;DHT22;9071;48.220;14.480;2023-04-25T09:12:29;15.90;99.90
17891;DHT22;9071;48.220;14.480;2023-04-25T09:17:31;15.60;99.90
17891;DHT22;9071;48.220;14.480;2023-04-25T09:22:33;15.80;99.90
17891;DHT22;9071;48.220;14.480;2023-04-25T09:27:49;15.80;99.90
17891;DHT22;9071;48.220;14.480;2023-04-25T09:32:56;14.80;99.90
17891;DHT22;9071;48.220;14.480;2023-04-25T09:37:59;14.50;99.90
17891;DHT22;9071;48.220;14.480;2023-04-25T09:43:02;15.50;99.90
17891;DHT22;9071;48.220;14.480;2023-04-25T09:48:05;16.10;99.90
17891;DHT22;9071;48.220;14.480;2023-04-25T09:53:07;16.60;99.90
17891;DHT22;9071;48.220;14.480;2023-04-25T09:58:11;17.10;99.90
17891;DHT22;9071;48.220;14.480;2023-04-25T10:03:15;16.60;99.90
17891;DHT22;9071;48.220;14.480;2023-04-25T10:08:19;16.40;99.90
17891;DHT22;9071;48.220;14.480;2023-04-25T10:13:23;16.50;99.90
17891;DHT22;9071;48.220;14.480;2023-04-25T10:18:26;17.00;99.90
17891;DHT22;9071;48.220;14.480;2023-04-25T10:23:30;16.60;99.90
17891;DHT22;9071;48.220;14.480;2023-04-25T10:28:55;15.90;99.90
17891;DHT22;9071;48.220;14.480;2023-04-25T10:33:57;15.90;99.90
17891;DHT22;9071;48.220;14.480;2023-04-25T10:39:08;16.60;99.90
17891;DHT22;9071;48.220;14.480;2023-04-25T10:44:12;17.40;99.90
17891;DHT22;9071;48.220;14.480;2023-04-25T10:49:32;17.60;99.90
17891;DHT22;9071;48.220;14.480;2023-04-25T10:54:34;16.20;99.90
17891;DHT22;9071;48.220;14.480;2023-04-25T10:59:40;14.40;99.90
17891;DHT22;9071;48.220;14.480;2023-04-25T11:04:42;13.60;99.90
17891;DHT22;9071;48.220;14.480;2023-04-25T11:09:46;12.90;99.90
17891;DHT22;9071;48.220;14.480;2023-04-25T11:14:49;12.30;99.90
17891;DHT22;9071;48.220;14.480;2023-04-25T11:19:51;12.20;99.90
17891;DHT22;9071;48.220;14.480;2023-04-25T11:24:53;12.10;99.90
17891;DHT22;9071;48.220;14.480;2023-04-25T11:29:57;12.30;99.90
17891;DHT22;9071;48.220;14.480;2023-04-25T11:34:59;12.10;99.90
17891;DHT22;9071;48.220;14.480;2023-04-25T11:40:02;12.00;99.90
17891;DHT22;9071;48.220;14.480;2023-04-25T11:45:06;12.00;99.90
17891;DHT22;9071;48.220;14.480;2023-04-25T11:50:10;11.70;99.90
17891;DHT22;9071;48.220;14.480;2023-04-25T11:55:13;11.50;99.90
17891;DHT22;9071;48.220;14.480;2023-04-25T12:00:19;11.70;99.90
17891;DHT22;9071;48.220;14.480;2023-04-25T12:05:24;12.10;99.90
17891;DHT22;9071;48.220;14.480;2023-04-25T12:10:27;12.90;99.90
17891;DHT22;9071;48.220;14.480;2023-04-25T12:15:33;13.30;99.90
17891;DHT22;9071;48.220;14.480;2023-04-25T12:20:35;13.50;99.90
17891;DHT22;9071;48.220;14.480;2023-04-25T12:25:39;13.50;99.90
17891;DHT22;9071;48.220;14.480;2023-04-25T12:30:58;13.90;99.90
17891;DHT22;9071;48.220;14.480;2023-04-25T12:36:02;14.10;99.90
17891;DHT22;9071;48.220;14.480;2023-04-25T12:41:09;14.40;99.90
17891;DHT22;9071;48.220;14.480;2023-04-25T12:46:12;14.60;99.90
17891;DHT22;9071;48.220;14.480;2023-04-25T12:51:14;14.80;99.90
17891;DHT22;9071;48.220;14.480;2023-04-25T12:56:16;14.90;99.90
17891;DHT22;9071;48.220;14.480;2023-04-25T13:01:20;15.00;99.90
17891;DHT22;9071;48.220;14.480;2023-04-25T13:06:22;15.30;99.90
17891;DHT22;9071;48.220;14.480;2023-04-25T13:11:24;15.20;99.90
17891;DHT22;9071;48.220;14.480;2023-04-25T13:16:28;13.60;99.90
17891;DHT22;9071;48.220;14.480;2023-04-25T13:21:30;12.10;99.90
17891;DHT22;9071;48.220;14.480;2023-04-25T13:26:33;11.10;99.90
17891;DHT22;9071;48.220;14.480;2023-04-25T13:31:37;10.60;99.90
17891;DHT22;9071;48.220;14.480;2023-04-25T13:36:39;10.40;99.90
17891;DHT22;9071;48.220;14.480;2023-04-25T13:41:41;10.90;99.90
17891;DHT22;9071;48.220;14.480;2023-04-25T13:46:45;11.90;99.90
17891;DHT22;9071;48.220;14.480;2023-04-25T13:51:47;12.50;99.90
17891;DHT22;9071;48.220;14.480;2023-04-25T13:56:49;12.50;99.90
17891;DHT22;9071;48.220;14.480;2023-04-25T14:01:53;12.40;99.90
17891;DHT22;9071;48.220;14.480;2023-04-25T14:06:56;12.70;99.90
17891;DHT22;9071;48.220;14.480;2023-04-25T14:11:58;13.50;99.90
17891;DHT22;9071;48.220;14.480;2023-04-25T14:17:02;13.40;99.90
17891;DHT22;9071;48.220;14.480;2023-04-25T14:22:04;13.80;99.90
17891;DHT22;9071;48.220;14.480;2023-04-25T14:27:06;14.00;99.90
17891;DHT22;9071;48.220;14.480;2023-04-25T14:32:10;13.80;99.90
17891;DHT22;9071;48.220;14.480;2023-04-25T14:37:12;13.10;99.90
17891;DHT22;9071;48.220;14.480;2023-04-25T14:42:14;12.60;99.90
17891;DHT22;9071;48.220;14.480;2023-04-25T14:47:18;12.20;99.90
17891;DHT22;9071;48.220;14.480;2023-04-25T14:52:20;12.30;99.90
17891;DHT22;9071;48.220;14.480;2023-04-25T14:57:22;12.40;99.90
17891;DHT22;9071;48.220;14.480;2023-04-25T15:02:26;12.30;99.90
17891;DHT22;9071;48.220;14.480;2023-04-25T15:07:28;12.50;99.90
17891;DHT22;9071;48.220;14.480;2023-04-25T15:12:30;12.50;99.90
17891;DHT22;9071;48.220;14.480;2023-04-25T15:17:34;12.30;99.90
17891;DHT22;9071;48.220;14.480;2023-04-25T15:22:36;12.80;99.90
17891;DHT22;9071;48.220;14.480;2023-04-25T15:27:39;13.40;99.90
17891;DHT22;9071;48.220;14.480;2023-04-25T15:32:45;14.10;99.90
17891;DHT22;9071;48.220;14.480;2023-04-25T15:37:48;14.30;99.90
17891;DHT22;9071;48.220;14.480;2023-04-25T15:42:52;13.90;99.90
17891;DHT22;9071;48.220;14.480;2023-04-25T15:47:56;13.00;99.90
17891;DHT22;9071;48.220;14.480;2023-04-25T15:52:58;12.50;99.90
17891;DHT22;9071;48.220;14.480;2023-04-25T15:58:01;12.40;99.90
17891;DHT22;9071;48.220;14.480;2023-04-25T16:03:05;12.20;99.90
17891;DHT22;9071;48.220;14.480;2023-04-25T16:08:07;12.40;99.90
17891;DHT22;9071;48.220;14.480;2023-04-25T16:13:09;12.60;99.90
17891;DHT22;9071;48.220;14.480;2023-04-25T16:18:13;12.90;99.90
17891;DHT22;9071;48.220;14.480;2023-04-25T16:23:15;12.80;99.90
17891;DHT22;9071;48.220;14.480;2023-04-25T16:28:17;11.40;99.90
17891;DHT22;9071;48.220;14.480;2023-04-25T16:33:21;10.10;99.90
17891;DHT22;9071;48.220;14.480;2023-04-25T16:38:23;8.90;99.90
17891;DHT22;9071;48.220;14.480;2023-04-25T16:43:25;8.20;99.90
17891;DHT22;9071;48.220;14.480;2023-04-25T16:48:28;8.10;99.90
17891;DHT22;9071;48.220;14.480;2023-04-25T16:53:31;8.10;99.90
17891;DHT22;9071;48.220;14.480;2023-04-25T16:58:33;8.30;99.90
17891;DHT22;9071;48.220;14.480;2023-04-25T17:03:37;8.40;99.90
17891;DHT22;9071;48.220;14.480;2023-04-25T17:08:39;8.60;99.90
17891;DHT22;9071;48.220;14.480;2023-04-25T17:13:41;8.70;99.90
17891;DHT22;9071;48.220;14.480;2023-04-25T17:18:46;8.70;99.90
17891;DHT22;9071;48.220;14.480;2023-04-25T17:23:48;8.70;99.90
17891;DHT22;9071;48.220;14.480;2023-04-25T17:28:50;8.70;99.90
17891;DHT22;9071;48.220;14.480;2023-04-25T17:33:53;8.80;99.90
17891;DHT22;9071;48.220;14.480;2023-04-25T17:38:57;8.80;99.90
17891;DHT22;9071;48.220;14.480;2023-04-25T17:43:59;8.70;99.90
17891;DHT22;9071;48.220;14.480;2023-04-25T17:49:02;8.70;99.90
17891;DHT22;9071;48.220;14.480;2023-04-25T17:54:05;8.70;99.90
17891;DHT22;9071;48.220;14.480;2023-04-25T17:59:08;8.70;99.90
17891;DHT22;9071;48.220;14.480;2023-04-25T18:04:11;8.60;99.90
17891;DHT22;9071;48.220;14.480;2023-04-25T18:09:13;8.50;99.90
17891;DHT22;9071;48.220;14.480;2023-04-25T18:14:21;8.50;99.90
17891;DHT22;9071;48.220;14.480;2023-04-25T18:19:25;8.50;99.90
17891;DHT22;9071;48.220;14.480;2023-04-25T18:24:27;8.40;99.90
17891;DHT22;9071;48.220;14.480;2023-04-25T18:29:30;8.50;99.90
17891;DHT22;9071;48.220;14.480;2023-04-25T18:34:33;8.50;99.90
17891;DHT22;9071;48.220;14.480;2023-04-25T18:39:35;8.50;99.90
17891;DHT22;9071;48.220;14.480;2023-04-25T18:44:37;8.50;99.90
17891;DHT22;9071;48.220;14.480;2023-04-25T18:49:42;8.50;99.90
17891;DHT22;9071;48.220;14.480;2023-04-25T18:54:44;8.60;99.90
17891;DHT22;9071;48.220;14.480;2023-04-25T18:59:46;8.50;99.90
17891;DHT22;9071;48.220;14.480;2023-04-25T19:04:50;8.40;99.90
17891;DHT22;9071;48.220;14.480;2023-04-25T19:09:52;8.40;99.90
17891;DHT22;9071;48.220;14.480;2023-04-25T19:14:54;8.30;99.90
17891;DHT22;9071;48.220;14.480;2023-04-25T19:19:58;8.40;99.90
17891;DHT22;9071;48.220;14.480;2023-04-25T19:25:00;8.30;99.90
17891;DHT22;9071;48.220;14.480;2023-04-25T19:30:03;8.30;99.90
17891;DHT22;9071;48.220;14.480;2023-04-25T19:35:10;8.30;99.90
17891;DHT22;9071;48.220;14.480;2023-04-25T19:40:14;8.30;99.90
17891;DHT22;9071;48.220;14.480;2023-04-25T19:45:16;8.20;99.90
17891;DHT22;9071;48.220;14.480;2023-04-25T19:50:20;8.20;99.90
17891;DHT22;9071;48.220;14.480;2023-04-25T19:55:22;8.20;99.90
17891;DHT22;9071;48.220;14.480;2023-04-25T20:00:24;8.30;99.90
17891;DHT22;9071;48.220;14.480;2023-04-25T20:05:27;8.30;99.90
17891;DHT22;9071;48.220;14.480;2023-04-25T20:10:29;8.40;99.90
17891;DHT22;9071;48.220;14.480;2023-04-25T20:15:31;8.40;99.90
17891;DHT22;9071;48.220;14.480;2023-04-25T20:20:35;8.40;99.90
17891;DHT22;9071;48.220;14.480;2023-04-25T20:25:37;8.30;99.90
17891;DHT22;9071;48.220;14.480;2023-04-25T20:30:39;8.30;99.90
17891;DHT22;9071;48.220;14.480;2023-04-25T20:35:42;8.20;99.90
17891;DHT22;9071;48.220;14.480;2023-04-25T20:40:45;8.20;99.90
17891;DHT22;9071;48.220;14.480;2023-04-25T20:45:47;8.10;99.90
17891;DHT22;9071;48.220;14.480;2023-04-25T20:50:51;8.10;99.90
17891;DHT22;9071;48.220;14.480;2023-04-25T20:55:53;8.10;99.90
17891;DHT22;9071;48.220;14.480;2023-04-25T21:00:55;8.10;99.90
17891;DHT22;9071;48.220;14.480;2023-04-25T21:05:59;8.20;99.90
17891;DHT22;9071;48.220;14.480;2023-04-25T21:11:01;8.30;99.90
17891;DHT22;9071;48.220;14.480;2023-04-25T21:16:04;8.30;99.90
17891;DHT22;9071;48.220;14.480;2023-04-25T21:21:08;8.30;99.90
17891;DHT22;9071;48.220;14.480;2023-04-25T21:26:10;8.30;99.90
17891;DHT22;9071;48.220;14.480;2023-04-25T21:31:12;8.30;99.90
17891;DHT22;9071;48.220;14.480;2023-04-25T21:36:16;8.30;99.90
17891;DHT22;9071;48.220;14.480;2023-04-25T21:41:18;8.20;99.90
17891;DHT22;9071;48.220;14.480;2023-04-25T21:46:20;8.10;99.90
17891;DHT22;9071;48.220;14.480;2023-04-25T21:51:25;7.90;99.90
17891;DHT22;9071;48.220;14.480;2023-04-25T21:56:28;7.70;99.90
17891;DHT22;9071;48.220;14.480;2023-04-25T22:01:30;7.70;99.90
17891;DHT22;9071;48.220;14.480;2023-04-25T22:06:33;7.70;99.90
17891;DHT22;9071;48.220;14.480;2023-04-25T22:11:36;7.70;99.90
17891;DHT22;9071;48.220;14.480;2023-04-25T22:16:38;7.70;99.90
17891;DHT22;9071;48.220;14.480;2023-04-25T22:21:41;7.60;99.90
17891;DHT22;9071;48.220;14.480;2023-04-25T22:26:44;7.60;99.90
17891;DHT22;9071;48.220;14.480;2023-04-25T22:31:46;7.60;99.90
17891;DHT22;9071;48.220;14.480;2023-04-25T22:36:49;7.60;99.90
17891;DHT22;9071;48.220;14.480;2023-04-25T22:41:52;7.50;99.90
17891;DHT22;9071;48.220;14.480;2023-04-25T22:46:54;7.30;99.90
17891;DHT22;9071;48.220;14.480;2023-04-25T22:51:58;7.20;99.90
17891;DHT22;9071;48.220;14.480;2023-04-25T22:57:00;7.20;99.90
17891;DHT22;9071;48.220;14.480;2023-04-25T23:02:03;7.20;99.90
17891;DHT22;9071;48.220;14.480;2023-04-25T23:07:06;7.20;99.90
17891;DHT22;9071;48.220;14.480;2023-04-25T23:12:08;7.20;99.90
17891;DHT22;9071;48.220;14.480;2023-04-25T23:17:10;7.20;99.90
17891;DHT22;9071;48.220;14.480;2023-04-25T23:22:13;7.00;99.90
17891;DHT22;9071;48.220;14.480;2023-04-25T23:27:16;6.80;99.90
17891;DHT22;9071;48.220;14.480;2023-04-25T23:32:18;6.70;99.90
17891;DHT22;9071;48.220;14.480;2023-04-25T23:37:21;6.60;99.90
17891;DHT22;9071;48.220;14.480;2023-04-25T23:42:23;6.50;99.90
17891;DHT22;9071;48.220;14.480;2023-04-25T23:47:25;6.50;99.90
17891;DHT22;9071;48.220;14.480;2023-04-25T23:52:28;6.30;99.90
17891;DHT22;9071;48.220;14.480;2023-04-25T23:57:31;6.20;99.90
